AirNav   Air Wisconsin pilot careers
 
 1084 users online  

KTNT Dade-Collier Training and Transition Airport
Miami, Florida, USA

GOING TO MIAMI?


FAA INFORMATION EFFECTIVE 21 JUNE 2018

Location

FAA Identifier: TNT
Lat/Long: 25-51-42.5000N / 080-53-49.2000W
25-51.708333N / 080-53.820000W
25.8618056 / -80.8970000
(estimated)
Elevation: 12.7 ft. / 3.9 m (surveyed)
Variation: 05W (2005)
From city: 36 miles W of MIAMI, FL
Time zone: UTC -4 (UTC -5 during Standard Time)
Zip code: 34141

Airport Operations

Airport use: Open to the public, ARPT CLSD TO PUBLIC EXCP BY ARRANGEMENT WITH MIAMI-DADE AVIATION DEPT MIAMI 305-869-1660.
Control tower: no
ARTCC: MIAMI CENTER
FSS: MIAMI FLIGHT SERVICE STATION
NOTAMs facility: MIA (NOTAM-D service available)
Attendance: CONTINUOUS
Wind indicator: lighted
Segmented circle: yes
Beacon: white-green (lighted land airport)
Operates sunset to sunrise.
Landing fee: yes

Airport Communications

CTAF/UNICOM: 123.0
WX AWOS-3: 119.075 ((239) 695-9198)
MIAMI APPROACH: 128.6
MIAMI DEPARTURE: 128.6
  • APCH/DEP SVC PRVDD BY MIAMI ATCT ON FREQS 128.6/306.975

Nearby radio navigation aids

VOR radial/distance  VOR name  Freq  Var
DHPr281/29.8DOLPHIN VORTAC113.9004W

 
NDB name  Hdg/Dist  Freq  Var  ID
MONRY095/6.222705WTN - -.

Airport Services

Airframe service: NONE
Powerplant service: NONE
Bottled oxygen: NONE
Bulk oxygen: NONE

Runway Information

Runway 9/27

Dimensions: 10499 x 150 ft. / 3200 x 46 m
Surface: asphalt/porous friction courses, in good condition
Weight bearing capacity: 
Single wheel: 130.0
Double wheel: 200.0
Double tandem: 400.0
Dual double tandem: 800.0
RUNWAY 9  RUNWAY 27
Latitude: 25-51.708232N25-51.707022N
Longitude: 080-54.777252W080-52.861753W
Elevation: 12.6 ft.12.4 ft.
Traffic pattern: leftright
Runway heading: 095 magnetic, 090 true275 magnetic, 270 true
Markings: precision, in fair conditionprecision, in fair condition
Touchdown point: yes, no lightsyes, no lights
Instrument approach: ILS
Obstructions: 4 ft. brush, 200 ft. from runway, 295 ft. right of centerline
+4' BRUSH, 13' FM RY END, 295' R OF CNTRLN.
4 ft. brush, 200 ft. from runway, 327 ft. right of centerline
+4' BRUSH, 56' FM RY END, 327' R OF CNTRLN.

Airport Ownership and Management from official FAA records

Ownership: Publicly-owned
Owner: MIAMI-DADE COUNTY
MIAMI-DADE AVIATION DEPARTMENT, P.O. BOX 025504
MIAMI, FL 33102-5504
Phone (305) 876-0464
Manager: NELSON MEJIAS
14201 NORTHWEST LEJEUNE ROAD
OPA-LOCKA, FL 33054
Phone (305) 869-1662
AIRPORT PHYSICAL ADDRESS: 54757 EAST TAMIAMI TRAIL, OCHOPPI, FL 34141 239-695-3300, FAX: 305-876-0565

Airport Operational Statistics

Aircraft operations: avg 40/day *
100% transient general aviation
* for 12-month period ending 26 October 2016

Additional Remarks

A100 ACR TRNG OPNS ONLY.
THREE 8IN WELLS FLUSH MTD BTN RWY AND TWY.
FEE FOR USE FOR ACFT OVER 12500 LBS.
MAEW IN BUFFER ISLAND BTN RY 09/27 & TWY.
WILDLIFE OCCASIONALLY ON & INVOF ARPT.
BE ALERT TO LOW FLYING NATIONAL PARK SVC ACFT ALL QUADRANTS.

Instrument Procedures

NOTE: All procedures below are presented as PDF files. If you need a reader for these files, you should download the free Adobe Reader.

NOT FOR NAVIGATION. Please procure official charts for flight.
FAA instrument procedures published for use from 21 June 2018 at 0901Z to 19 July 2018 at 0900Z.

 
IAPs - Instrument Approach Procedures
RNAV (GPS) RWY 09 **CHANGED**   download (222KB)

Other nearby airports with instrument procedures:

KTMB - Miami Executive Airport (28 nm SE)
X51 - Miami Homestead General Aviation Airport (29 nm SE)
KMIA - Miami International Airport (33 nm E)
KOPF - Miami-Opa Locka Executive Airport (34 nm E)
KHST - Homestead Air Reserve Base (36 nm SE)
 
Loc | Ops | Rwys | IFR | FBO | Links
Com | Nav | Svcs | Stats | Notes


 
Area around KTNT (Dade-Collier Training and Transition Airport)
 
Road maps at: MapQuest Bing Google
 
Aerial photo
WARNING: Photo may not be current or correct
Aerial photo of KTNT (Dade-Collier Training and Transition Airport)
Do you have a better or more recent aerial photo of Dade-Collier Training and Transition Airport that you would like to share? If so, please send us your photo.

 
Sectional chart

 
Airport distance calculator
Flying to Dade-Collier Training and Transition Airport? Find the distance to fly.

From to KTNT

Sunrise and sunset
Times for 21-Jun-2018
 Local
(UTC-4)
 Zulu
(UTC)
Morning civil twilight06:0810:08
Sunrise06:3410:34
Sunset20:1700:17
Evening civil twilight20:4300:43

Current date and time
Zulu (UTC)  22-Jun-2018 01:30:10
Local (UTC-4)  21-Jun-2018 21:30:10
 
METAR
KTMB 
28nm SE 
220106Z AUTO 23009G21KT 10SM -TSRA BKN031 BKN041 OVC049 28/22 A2996 RMK AO2 LTG DSNT E AND SE RAB0058 TSB00 P0000 T02780217
KMIA 
32nm E 
220120Z 26003KT 10SM TS FEW030CB SCT075 BKN250 28/26 A2996 RMK AO2 LTG DSNT SE-SW TSB14 OCNL LTGICCG SE-SW TS SE-SW MOV E T02780261 $
KOPF 
33nm E 
220053Z 30006KT 10SM CLR 29/24 A2995 RMK AO2 LTG DSNT S SLP143 T02890244 PNO
KHWO 
37nm E 
220053Z AUTO 33005KT 10SM CLR 29/24 A2996 RMK AO2 LTG DSNT S SLP146 T02940239
KHST 
37nm SE 
220108Z 28006KT 10SM TS FEW043CB 29/24 A2996 RMK AO2A OCNL LTG ICCCCG N TS 5N MOV ESE
KFLL 
42nm E 
220053Z 00000KT 10SM FEW028 FEW070 SCT160 SCT250 28/25 A2995 RMK AO2 LTG DSNT S SLP141 T02780250 $
KMKY 
43nm W 
220056Z AUTO 30003KT 10SM SCT027 29/24 A2997 RMK AO2 SLP149 T02890244
KFXE 
43nm NE 
220053Z 00000KT 10SM CLR 27/26 A2995 RMK AO2 SLP144 T02720261
KIMM 
44nm NW 
220115Z AUTO 00000KT 10SM CLR 27/25 A2997 RMK AO2
KPMP 
48nm NE 
220053Z 31005KT 10SM CLR 27/25 A2995 RMK AO2 SLP144 T02720250
TAF
KTMB 
28nm SE 
212112Z 2121/2218 25008KT P6SM VCSH FEW030 SCT050 FM220000 27005KT P6SM SCT025 FM221400 27007KT P6SM FEW025 SCT050
KMIA 
32nm E 
212315Z 2123/2224 22007KT P6SM VCTS SCT025CB BKN050 TEMPO 2123/2124 VRB15G25KT 3SM SHRA SCT015 BKN025 OVC050 FM220000 VRB05KT P6SM VCSH FEW025 SCT050 BKN120 FM220200 VRB03KT P6SM FEW025 SCT250 FM221400 27006KT P6SM FEW025 SCT050
KOPF 
33nm E 
212317Z 2123/2218 28007KT P6SM VCTS SCT025CB BKN050 TEMPO 2123/2124 VRB15G25KT 3SM SHRA SCT015 BKN025 OVC050 FM220000 VRB05KT P6SM VCSH FEW025 SCT050 BKN120 FM220200 VRB03KT P6SM FEW025 SCT250 FM221400 27008KT P6SM FEW025 SCT050
NOTAMs
Click for the latest NOTAMs
NOTAMs are issued by the DoD/FAA and will open in a separate window not controlled by AirNav.

 

 
 

Would you like to see your business listed on this page?

 If your business provides an interesting product or service to pilots, flight crews, aircraft, or users of the Dade-Collier Training and Transition Airport, you should consider listing it here.  To start the listing process, click on the button below
 
Add a business
 

Other Pages about Dade-Collier Training and Transition Airport

Update a link
 
Copyright © AirNav, LLC. All rights reserved. Privacy Policy  Contact